createdAt,value
2019-05-11T00:01:31.012Z,19.60
2019-05-11T00:03:30.974Z,20.20
2019-05-11T00:05:30.966Z,19.70
2019-05-11T00:07:30.945Z,22.30
2019-05-11T00:09:30.922Z,19.90
2019-05-11T00:11:30.888Z,21.50
2019-05-11T00:13:30.878Z,19.90
2019-05-11T00:15:30.836Z,20.40
2019-05-11T00:17:30.823Z,23.90
2019-05-11T00:19:30.822Z,20.30
2019-05-11T00:21:30.777Z,19.40
2019-05-11T00:23:30.765Z,19.40
2019-05-11T00:25:30.737Z,21.80
2019-05-11T00:27:30.714Z,19.10
2019-05-11T00:29:30.703Z,19.40
2019-05-11T00:31:30.677Z,23.80
2019-05-11T00:33:30.644Z,23.30
2019-05-11T00:35:30.616Z,22.80
2019-05-11T00:37:30.602Z,23.70
2019-05-11T00:39:30.567Z,21.20
2019-05-11T00:41:30.591Z,23.40
2019-05-11T00:43:30.539Z,21.30
2019-05-11T00:45:30.504Z,23.60
2019-05-11T00:47:30.498Z,20.40
2019-05-11T00:49:30.530Z,23.70
2019-05-11T00:51:30.435Z,22.50
2019-05-11T00:53:30.427Z,22.10
2019-05-11T00:55:30.393Z,21.90
2019-05-11T00:57:30.388Z,23.00
2019-05-11T00:59:30.350Z,25.90
2019-05-11T01:01:30.339Z,21.80
2019-05-11T01:03:30.317Z,21.80
2019-05-11T01:05:30.283Z,20.20
2019-05-11T01:07:30.288Z,20.60
2019-05-11T01:09:30.258Z,20.10
2019-05-11T01:11:30.225Z,17.20
2019-05-11T01:13:30.186Z,19.30
2019-05-11T01:15:30.179Z,19.30
2019-05-11T01:17:30.141Z,16.50
2019-05-11T01:19:30.127Z,14.00
2019-05-11T01:21:30.114Z,15.60
2019-05-11T01:23:30.080Z,17.80
2019-05-11T01:25:30.063Z,15.70
2019-05-11T01:27:30.064Z,12.60
2019-05-11T01:29:30.022Z,15.30
2019-05-11T01:31:30.003Z,16.60
2019-05-11T01:33:29.968Z,15.60
2019-05-11T01:35:29.948Z,15.20
2019-05-11T01:37:29.938Z,17.00
2019-05-11T01:39:29.903Z,17.90
2019-05-11T01:41:29.875Z,14.30
2019-05-11T01:43:29.870Z,15.40
2019-05-11T01:45:29.836Z,17.10
2019-05-11T01:47:29.838Z,16.90
2019-05-11T01:49:29.798Z,20.10
2019-05-11T01:51:29.816Z,19.90
2019-05-11T01:53:29.752Z,25.50
2019-05-11T01:55:29.735Z,26.60
2019-05-11T01:57:29.723Z,28.10
2019-05-11T01:59:29.706Z,28.10
2019-05-11T02:01:29.670Z,25.70
2019-05-11T02:03:29.655Z,23.20
2019-05-11T02:05:29.624Z,26.50
2019-05-11T02:07:29.588Z,24.40
2019-05-11T02:09:29.570Z,27.20
2019-05-11T02:11:29.569Z,22.70
2019-05-11T02:13:29.531Z,25.40
2019-05-11T02:15:29.524Z,21.80
2019-05-11T02:17:29.500Z,24.30
2019-05-11T02:19:29.459Z,22.40
2019-05-11T02:21:29.445Z,22.80
2019-05-11T02:23:29.421Z,25.90
2019-05-11T02:25:29.412Z,23.90
2019-05-11T02:27:29.374Z,26.60
2019-05-11T02:29:29.362Z,28.30
2019-05-11T02:31:29.342Z,30.20
2019-05-11T02:33:29.322Z,30.30
2019-05-11T02:35:29.286Z,34.00
2019-05-11T02:37:29.287Z,32.70
2019-05-11T02:39:29.248Z,30.60
2019-05-11T02:41:36.166Z,31.90
2019-05-11T02:43:30.215Z,31.60
2019-05-11T02:45:29.203Z,30.30
2019-05-11T02:47:29.159Z,28.90
2019-05-11T02:49:29.161Z,31.50
2019-05-11T02:51:29.146Z,30.30
2019-05-11T02:53:29.102Z,34.40
2019-05-11T02:55:29.111Z,33.80
2019-05-11T02:57:29.058Z,29.30
2019-05-11T02:59:30.034Z,31.50
2019-05-11T03:01:29.057Z,25.80
2019-05-11T03:03:29.012Z,39.40
2019-05-11T03:05:28.970Z,25.50
2019-05-11T03:07:28.966Z,24.80
2019-05-11T03:09:28.925Z,24.30
2019-05-11T03:11:28.916Z,24.40
2019-05-11T03:13:28.897Z,25.80
2019-05-11T03:15:28.867Z,24.60
2019-05-11T03:17:28.864Z,26.10
2019-05-11T03:19:28.840Z,27.80
2019-05-11T03:21:28.850Z,24.10
2019-05-11T03:23:28.780Z,25.80
2019-05-11T03:25:28.790Z,23.40
2019-05-11T03:27:28.791Z,34.10
2019-05-11T03:29:28.719Z,31.70
2019-05-11T03:31:28.695Z,26.70
2019-05-11T03:33:28.685Z,28.40
2019-05-11T03:35:28.667Z,27.50
2019-05-11T03:37:28.629Z,26.10
2019-05-11T03:39:28.627Z,31.00
2019-05-11T03:41:28.587Z,26.20
2019-05-11T03:43:28.568Z,28.00
2019-05-11T03:45:28.574Z,29.70
2019-05-11T03:47:28.527Z,23.00
2019-05-11T03:49:28.525Z,26.90
2019-05-11T03:51:28.480Z,26.60
2019-05-11T03:53:28.477Z,22.60
2019-05-11T03:55:28.469Z,33.00
2019-05-11T03:57:28.430Z,36.40
2019-05-11T03:59:28.400Z,23.30
2019-05-11T04:01:28.382Z,26.40
2019-05-11T04:03:28.362Z,31.70
2019-05-11T04:05:28.344Z,31.20
2019-05-11T04:07:28.309Z,27.90
2019-05-11T04:09:28.301Z,27.10
2019-05-11T04:11:28.304Z,30.60
2019-05-11T04:13:28.259Z,32.50
2019-05-11T04:15:28.224Z,28.20
2019-05-11T04:17:28.223Z,30.30
2019-05-11T04:19:28.217Z,28.60
2019-05-11T04:21:28.199Z,26.90
2019-05-11T04:23:28.166Z,28.60
2019-05-11T04:25:28.123Z,25.10
2019-05-11T04:27:28.097Z,26.80
2019-05-11T04:29:28.125Z,26.20
2019-05-11T04:31:28.056Z,26.10
2019-05-11T04:33:32.404Z,25.30
2019-05-11T04:35:29.015Z,26.90
2019-05-11T04:37:28.012Z,29.50
2019-05-11T04:39:27.996Z,32.10
2019-05-11T04:41:27.949Z,23.30
2019-05-11T04:43:27.945Z,31.70
2019-05-11T04:45:27.937Z,26.90
2019-05-11T04:47:27.914Z,27.30
2019-05-11T04:49:27.870Z,28.80
2019-05-11T04:51:27.862Z,23.40
2019-05-11T04:53:27.828Z,23.20
2019-05-11T04:55:27.812Z,20.20
2019-05-11T04:57:27.795Z,18.40
2019-05-11T04:59:27.761Z,19.30
2019-05-11T05:01:27.799Z,19.30
2019-05-11T05:03:40.269Z,19.40
2019-05-11T05:05:28.702Z,22.00
2019-05-11T05:07:27.710Z,19.40
2019-05-11T05:09:27.779Z,20.40
2019-05-11T05:11:30.582Z,23.70
2019-05-11T05:13:29.361Z,20.90
2019-05-11T05:15:27.600Z,19.20
2019-05-11T05:17:27.563Z,22.60
2019-05-11T05:19:27.550Z,21.10
2019-05-11T05:21:27.538Z,23.00
2019-05-11T05:23:27.513Z,19.30
2019-05-11T05:25:27.506Z,19.70
2019-05-11T05:27:27.460Z,20.30
2019-05-11T05:29:27.433Z,21.00
2019-05-11T05:31:27.445Z,21.50
2019-05-11T05:33:27.398Z,21.00
2019-05-11T05:35:27.384Z,17.00
2019-05-11T05:37:27.365Z,19.20
2019-05-11T05:39:27.327Z,21.60
2019-05-11T05:41:27.322Z,26.80
2019-05-11T05:43:28.659Z,21.50
2019-05-11T05:45:27.267Z,18.50
2019-05-11T05:47:27.249Z,17.50
2019-05-11T05:49:27.234Z,18.60
2019-05-11T05:51:27.227Z,20.20
2019-05-11T05:53:27.191Z,19.70
2019-05-11T05:55:27.161Z,20.70
2019-05-11T05:57:27.131Z,18.20
2019-05-11T05:59:27.120Z,17.10
2019-05-11T06:01:27.095Z,17.20
2019-05-11T06:03:27.106Z,14.70
2019-05-11T06:05:27.047Z,15.70
2019-05-11T06:07:27.054Z,14.60
2019-05-11T06:09:27.018Z,15.40
2019-05-11T06:11:26.975Z,16.20
2019-05-11T06:13:44.074Z,13.30
2019-05-11T06:15:27.965Z,16.30
2019-05-11T06:17:26.911Z,12.90
2019-05-11T06:19:26.890Z,17.00
2019-05-11T06:21:26.887Z,13.70
2019-05-11T06:23:26.843Z,16.60
2019-05-11T06:25:26.843Z,14.40
2019-05-11T06:27:26.823Z,16.50
2019-05-11T06:29:26.783Z,16.50
2019-05-11T06:31:26.785Z,14.60
2019-05-11T06:33:26.730Z,14.00
2019-05-11T06:35:26.712Z,14.70
2019-05-11T06:37:26.702Z,11.90
2019-05-11T06:39:26.677Z,12.20
2019-05-11T06:41:26.663Z,12.20
2019-05-11T06:43:26.641Z,13.10
2019-05-11T06:45:26.605Z,15.60
2019-05-11T06:47:26.611Z,12.20
2019-05-11T06:49:27.969Z,10.90
2019-05-11T06:51:26.723Z,11.00
2019-05-11T06:53:26.719Z,9.70
2019-05-11T06:55:26.705Z,12.20
2019-05-11T06:57:26.472Z,13.20
2019-05-11T06:59:26.481Z,10.10
2019-05-11T07:01:26.618Z,12.30
2019-05-11T07:03:26.851Z,11.40
2019-05-11T07:05:26.960Z,12.50
2019-05-11T07:07:28.899Z,11.40
2019-05-11T07:09:26.784Z,11.40
2019-05-11T07:11:26.716Z,11.60
2019-05-11T07:13:29.055Z,11.80
2019-05-11T07:15:27.265Z,11.60
2019-05-11T07:17:26.692Z,11.70
2019-05-11T07:19:26.613Z,11.30
2019-05-11T07:21:27.013Z,10.80
2019-05-11T07:23:26.873Z,11.50
2019-05-11T07:25:26.636Z,12.20
2019-05-11T07:27:28.065Z,12.20
2019-05-11T07:29:26.896Z,13.50
2019-05-11T07:31:26.292Z,12.10
2019-05-11T07:33:26.077Z,11.40
2019-05-11T07:35:27.934Z,11.10
2019-05-11T07:37:28.037Z,11.90
2019-05-11T07:39:27.964Z,11.60
2019-05-11T07:41:28.121Z,11.00
2019-05-11T07:43:28.590Z,13.80
2019-05-11T07:45:28.165Z,12.30
2019-05-11T07:47:27.829Z,12.30
2019-05-11T07:49:25.905Z,16.20
2019-05-11T07:51:25.867Z,13.40
2019-05-11T07:53:33.104Z,16.60
2019-05-11T07:55:28.010Z,14.90
2019-05-11T07:57:28.247Z,14.80
2019-05-11T07:59:25.805Z,13.00
2019-05-11T08:01:28.081Z,13.80
2019-05-11T08:03:28.186Z,14.70
2019-05-11T08:05:28.194Z,14.70
2019-05-11T08:07:25.703Z,14.60
2019-05-11T08:09:27.856Z,15.90
2019-05-11T08:11:28.923Z,16.30
2019-05-11T08:13:28.211Z,15.90
2019-05-11T08:15:25.603Z,16.50
2019-05-11T08:17:25.586Z,18.40
2019-05-11T08:19:28.080Z,18.60
2019-05-11T08:21:25.626Z,18.20
2019-05-11T08:23:25.663Z,16.80
2019-05-11T08:25:25.713Z,16.40
2019-05-11T08:27:25.495Z,18.90
2019-05-11T08:29:27.673Z,17.80
2019-05-11T08:31:27.719Z,16.10
2019-05-11T08:33:25.435Z,16.30
2019-05-11T08:35:30.429Z,16.70
2019-05-11T08:37:28.407Z,16.80
2019-05-11T08:39:25.346Z,18.30
2019-05-11T08:41:27.778Z,18.00
2019-05-11T08:43:25.291Z,22.00
2019-05-11T08:45:27.741Z,20.60
2019-05-11T08:47:25.263Z,19.70
2019-05-11T08:49:25.233Z,19.60
2019-05-11T08:51:25.226Z,20.00
2019-05-11T08:53:25.182Z,18.90
2019-05-11T08:55:25.186Z,23.70
2019-05-11T08:57:25.144Z,22.80
2019-05-11T08:59:27.675Z,26.30
2019-05-11T09:01:25.181Z,25.20
2019-05-11T09:03:25.092Z,25.80
2019-05-11T09:05:25.066Z,28.80
2019-05-11T09:07:25.062Z,27.90
2019-05-11T09:09:25.018Z,32.50
2019-05-11T09:11:24.997Z,36.00
2019-05-11T09:13:24.983Z,40.50
2019-05-11T09:15:33.452Z,42.60
2019-05-11T09:17:25.935Z,38.90
2019-05-11T09:19:24.902Z,45.80
2019-05-11T09:21:24.887Z,45.80
2019-05-11T09:23:36.265Z,46.80
2019-05-11T09:25:27.787Z,51.60
2019-05-11T09:27:24.838Z,51.40
2019-05-11T09:29:24.806Z,52.10
2019-05-11T09:31:24.785Z,54.40
2019-05-11T09:33:24.779Z,55.10
2019-05-11T09:35:24.755Z,55.30
2019-05-11T09:37:24.714Z,55.00
2019-05-11T09:39:24.728Z,59.20
2019-05-11T09:41:24.669Z,62.70
2019-05-11T09:43:24.642Z,59.30
2019-05-11T09:45:24.638Z,61.80
2019-05-11T09:47:24.604Z,61.10
2019-05-11T09:49:42.734Z,60.30
2019-05-11T09:51:25.615Z,60.60
2019-05-11T09:53:24.541Z,63.10
2019-05-11T09:55:24.529Z,61.90
2019-05-11T09:57:24.504Z,63.70
2019-05-11T09:59:24.474Z,59.10
2019-05-11T10:01:24.466Z,59.30
2019-05-11T10:03:24.437Z,56.60
2019-05-11T10:05:24.430Z,52.80
2019-05-11T10:07:24.396Z,50.60
2019-05-11T10:09:24.384Z,52.70
2019-05-11T10:11:24.345Z,51.10
2019-05-11T10:13:24.336Z,45.30
2019-05-11T10:15:24.302Z,45.40
2019-05-11T10:17:24.329Z,44.50
2019-05-11T10:19:24.266Z,37.60
2019-05-11T10:21:24.231Z,35.20
2019-05-11T10:23:24.229Z,35.20
2019-05-11T10:25:24.199Z,34.00
2019-05-11T10:27:24.166Z,34.20
2019-05-11T10:29:24.159Z,32.00
2019-05-11T10:31:24.140Z,33.70
2019-05-11T10:33:24.123Z,32.80
2019-05-11T10:35:24.100Z,31.80
2019-05-11T10:37:24.064Z,34.30
2019-05-11T10:39:24.039Z,33.10
2019-05-11T10:41:24.036Z,33.30
2019-05-11T10:43:23.998Z,31.50
2019-05-11T10:45:23.994Z,31.60
2019-05-11T10:47:23.967Z,30.80
2019-05-11T10:49:23.930Z,31.20
2019-05-11T10:51:23.911Z,31.70
2019-05-11T10:53:23.904Z,25.90
2019-05-11T10:55:23.879Z,24.60
2019-05-11T10:57:23.904Z,23.60
2019-05-11T10:59:23.834Z,25.00
2019-05-11T11:01:23.800Z,25.90
2019-05-11T11:03:23.795Z,23.70
2019-05-11T11:05:23.775Z,23.50
2019-05-11T11:07:23.740Z,22.20
2019-05-11T11:09:23.733Z,22.70
2019-05-11T11:11:23.690Z,23.40
2019-05-11T11:13:23.672Z,23.30
2019-05-11T11:15:23.663Z,22.50
2019-05-11T11:17:23.632Z,21.90
2019-05-11T11:19:23.628Z,26.40
2019-05-11T11:21:23.606Z,22.80
2019-05-11T11:23:23.565Z,22.90
2019-05-11T11:25:23.596Z,24.40
2019-05-11T11:27:23.519Z,21.80
2019-05-11T11:29:23.502Z,20.40
2019-05-11T11:31:23.578Z,20.10
2019-05-11T11:33:23.458Z,20.20
2019-05-11T11:35:23.456Z,17.00
2019-05-11T11:37:23.424Z,17.50
2019-05-11T11:39:23.402Z,20.00
2019-05-11T11:41:23.394Z,18.40
2019-05-11T11:43:23.370Z,18.10
2019-05-11T11:45:23.336Z,18.20
2019-05-11T11:47:23.358Z,17.60
2019-05-11T11:49:23.300Z,17.00
2019-05-11T11:51:23.261Z,18.80
2019-05-11T11:53:23.295Z,20.50
2019-05-11T11:55:23.216Z,16.70
2019-05-11T11:57:23.201Z,16.10
2019-05-11T11:59:23.199Z,16.20
2019-05-11T12:01:23.176Z,17.50
2019-05-11T12:03:23.135Z,16.70
2019-05-11T12:05:23.138Z,16.10
2019-05-11T12:07:23.084Z,17.40
2019-05-11T12:09:23.103Z,15.00
2019-05-11T12:11:23.062Z,15.40
2019-05-11T12:13:26.385Z,16.70
2019-05-11T12:15:23.020Z,16.80
2019-05-11T12:17:22.985Z,17.70
2019-05-11T12:19:22.989Z,20.30
2019-05-11T12:21:22.981Z,20.60
2019-05-11T12:23:22.929Z,19.10
2019-05-11T12:25:22.923Z,24.30
2019-05-11T12:27:22.883Z,20.90
2019-05-11T12:29:22.850Z,19.00
2019-05-11T12:31:22.842Z,19.60
2019-05-11T12:33:22.835Z,21.80
2019-05-11T12:35:22.803Z,17.30
2019-05-11T12:37:22.782Z,18.00
2019-05-11T12:39:22.775Z,19.60
2019-05-11T12:41:22.724Z,18.80
2019-05-11T12:43:22.745Z,19.10
2019-05-11T12:45:22.703Z,16.60
2019-05-11T12:47:25.111Z,18.30
2019-05-11T12:49:22.653Z,18.50
2019-05-11T12:51:22.620Z,19.10
2019-05-11T12:53:22.619Z,17.90
2019-05-11T12:55:22.580Z,18.50
2019-05-11T12:57:22.553Z,17.40
2019-05-11T12:59:22.577Z,18.10
2019-05-11T13:01:22.512Z,21.60
2019-05-11T13:03:22.496Z,21.70
2019-05-11T13:05:22.482Z,19.40
2019-05-11T13:07:22.443Z,21.60
2019-05-11T13:09:22.447Z,21.30
2019-05-11T13:11:22.417Z,20.50
2019-05-11T13:13:22.380Z,20.60
2019-05-11T13:15:22.382Z,21.10
2019-05-11T13:17:34.171Z,21.80
2019-05-11T13:19:23.310Z,20.80
2019-05-11T13:21:22.331Z,20.20
2019-05-11T13:23:22.287Z,20.90
2019-05-11T13:25:22.253Z,18.80
2019-05-11T13:27:22.255Z,20.80
2019-05-11T13:29:22.216Z,19.40
2019-05-11T13:31:22.197Z,20.50
2019-05-11T13:33:22.185Z,17.10
2019-05-11T13:35:22.144Z,16.50
2019-05-11T13:37:22.118Z,18.00
2019-05-11T13:39:22.124Z,22.20
2019-05-11T13:41:22.078Z,21.40
2019-05-11T13:43:22.056Z,16.00
2019-05-11T13:45:22.046Z,18.60
2019-05-11T13:47:22.009Z,15.70
2019-05-11T13:49:21.996Z,16.10
2019-05-11T13:51:21.984Z,15.30
2019-05-11T13:53:21.950Z,15.50
2019-05-11T13:55:21.945Z,16.60
2019-05-11T13:57:21.903Z,15.70
2019-05-11T13:59:22.178Z,12.60
2019-05-11T14:01:21.882Z,15.20
2019-05-11T14:03:21.842Z,13.70
2019-05-11T14:05:21.862Z,13.50
2019-05-11T14:07:21.811Z,11.40
2019-05-11T14:09:21.779Z,12.30
2019-05-11T14:11:21.760Z,12.80
2019-05-11T14:13:23.004Z,11.20
2019-05-11T14:15:22.011Z,10.80
2019-05-11T14:17:21.842Z,10.30
2019-05-11T15:02:25.731Z,12.20
2019-05-11T15:04:32.732Z,9.80
2019-05-11T15:06:27.805Z,10.60
2019-05-11T15:08:32.695Z,9.80
2019-05-11T15:10:27.585Z,10.50
2019-05-11T15:12:25.604Z,11.10
2019-05-11T15:18:38.450Z,12.20
2019-05-11T15:20:08.267Z,8.40
2019-05-11T15:22:08.557Z,11.70
2019-05-11T15:24:08.757Z,11.70
2019-05-11T15:26:13.206Z,10.90
2019-05-11T15:28:13.174Z,10.70
2019-05-11T15:30:07.997Z,14.00
2019-05-11T15:32:08.330Z,12.40
2019-05-11T15:34:08.285Z,11.30
2019-05-11T15:36:07.628Z,10.60
2019-05-11T15:38:08.536Z,9.60
2019-05-11T15:40:08.057Z,9.90
2019-05-11T15:42:13.251Z,13.60
2019-05-11T15:44:11.335Z,9.70
2019-05-11T15:46:07.044Z,13.90
2019-05-11T15:48:08.210Z,11.20
2019-05-11T15:50:08.188Z,13.50
2019-05-11T15:52:08.058Z,16.30
2019-05-11T15:54:07.937Z,11.80
2019-05-11T15:56:08.407Z,12.00
2019-05-11T15:58:05.851Z,11.00
2019-05-11T16:00:05.826Z,12.40
2019-05-11T16:02:05.816Z,12.00
2019-05-11T16:04:05.778Z,11.60
2019-05-11T16:06:12.884Z,10.50
2019-05-11T16:08:08.170Z,12.80
2019-05-11T16:10:07.943Z,13.30
2019-05-11T16:12:05.747Z,11.80
2019-05-11T16:14:08.281Z,11.10
2019-05-11T16:16:05.649Z,10.50
2019-05-11T16:18:05.627Z,12.20
2019-05-11T16:20:08.599Z,12.40
2019-05-11T16:22:09.634Z,11.80
2019-05-11T16:24:07.708Z,11.40
2019-05-11T16:26:05.595Z,11.00
2019-05-11T16:28:07.863Z,11.20
2019-05-11T16:30:05.474Z,13.30
2019-05-11T16:32:08.231Z,14.70
2019-05-11T16:34:07.845Z,12.00
2019-05-11T16:36:05.506Z,14.20
2019-05-11T16:38:07.770Z,16.20
2019-05-11T16:40:06.365Z,11.80
2019-05-11T16:42:05.427Z,12.90
2019-05-11T16:44:07.695Z,11.80
2019-05-11T16:47:22.917Z,12.50
2019-05-11T16:49:28.446Z,13.70
2019-05-11T16:51:23.875Z,12.40
2019-05-11T16:53:22.881Z,12.00
2019-05-11T16:55:22.835Z,11.70
2019-05-11T16:57:22.815Z,12.40
2019-05-11T16:59:22.811Z,12.50
2019-05-11T17:01:22.766Z,10.50
2019-05-11T17:03:22.761Z,13.10
2019-05-11T17:05:29.745Z,10.50
2019-05-11T17:07:23.710Z,11.70
2019-05-11T17:09:22.695Z,11.80
2019-05-11T17:11:22.690Z,12.80
2019-05-11T17:13:22.639Z,11.30
2019-05-11T17:15:22.625Z,12.00
2019-05-11T17:17:22.745Z,12.80
2019-05-11T17:19:22.596Z,10.80
2019-05-11T17:21:22.562Z,14.70
2019-05-11T17:23:22.529Z,13.50
2019-05-11T17:25:22.514Z,11.00
2019-05-11T17:27:22.493Z,9.30
2019-05-11T17:29:22.465Z,12.20
2019-05-11T17:31:22.462Z,12.00
2019-05-11T17:33:22.422Z,11.60
2019-05-11T17:35:22.422Z,12.80
2019-05-11T17:37:22.373Z,11.60
2019-05-11T17:39:22.384Z,8.80
2019-05-11T17:41:22.378Z,12.90
2019-05-11T17:43:22.344Z,11.30
2019-05-11T17:45:22.297Z,12.70
2019-05-11T17:47:23.754Z,11.20
2019-05-11T17:49:23.086Z,12.10
2019-05-11T17:51:24.997Z,12.50
2019-05-11T17:53:22.269Z,11.00
2019-05-11T17:55:22.187Z,9.40
2019-05-11T17:57:22.184Z,8.20
2019-05-11T17:59:22.178Z,13.10
2019-05-11T18:01:22.140Z,9.80
2019-05-11T18:03:22.105Z,12.10
2019-05-11T18:05:22.074Z,11.30
2019-05-11T18:07:27.102Z,9.60
2019-05-11T18:09:23.065Z,10.50
2019-05-11T18:11:22.008Z,10.30
2019-05-11T18:13:21.999Z,10.10
2019-05-11T18:15:21.972Z,9.40
2019-05-11T18:17:21.973Z,11.10
2019-05-11T18:19:21.927Z,8.60
2019-05-11T18:21:21.937Z,8.50
2019-05-11T18:23:21.884Z,12.00
2019-05-11T18:25:21.863Z,9.70
2019-05-11T18:27:21.837Z,10.40
2019-05-11T18:29:21.815Z,8.20
2019-05-11T18:31:21.799Z,6.50
2019-05-11T18:33:21.780Z,6.70
2019-05-11T18:35:21.770Z,8.60
2019-05-11T18:37:21.740Z,8.70
2019-05-11T18:39:21.707Z,5.10
2019-05-11T18:41:21.706Z,4.80
2019-05-11T18:43:21.656Z,6.40
2019-05-11T18:45:21.659Z,5.30
2019-05-11T18:47:21.644Z,6.60
2019-05-11T18:49:21.600Z,7.80
2019-05-11T18:51:21.571Z,4.90
2019-05-11T18:53:21.572Z,6.60
2019-05-11T18:55:21.528Z,7.30
2019-05-11T18:57:21.507Z,5.70
2019-05-11T18:59:21.513Z,5.40
2019-05-11T19:01:21.469Z,5.60
2019-05-11T19:03:21.464Z,7.20
2019-05-11T19:05:21.450Z,4.60
2019-05-11T19:07:21.426Z,4.50
2019-05-11T19:09:21.417Z,4.80
2019-05-11T19:11:21.359Z,10.00
2019-05-11T19:13:21.381Z,5.10
2019-05-11T19:15:21.312Z,5.00
2019-05-11T19:17:21.317Z,6.10
2019-05-11T19:19:21.291Z,8.40
2019-05-11T19:21:21.282Z,5.70
2019-05-11T19:23:21.227Z,8.20
2019-05-11T19:25:21.273Z,6.00
2019-05-11T19:27:21.218Z,3.50
2019-05-11T19:29:21.171Z,7.30
2019-05-11T19:31:21.158Z,8.90
2019-05-11T19:33:21.117Z,5.30
2019-05-11T19:35:21.590Z,6.00
2019-05-11T19:37:21.101Z,7.00
2019-05-11T19:39:21.056Z,6.50
2019-05-11T19:41:21.032Z,5.00
2019-05-11T19:43:21.031Z,5.90
2019-05-11T19:45:21.002Z,5.20
2019-05-11T19:47:21.000Z,7.00
2019-05-11T19:49:20.946Z,6.70
2019-05-11T19:51:20.949Z,5.10
2019-05-11T19:53:20.923Z,6.90
2019-05-11T19:55:20.875Z,7.80
2019-05-11T19:57:20.862Z,5.80
2019-05-11T19:59:20.858Z,4.30
2019-05-11T20:01:20.819Z,7.50
2019-05-11T20:03:20.844Z,9.30
2019-05-11T20:05:20.783Z,6.90
2019-05-11T20:07:20.751Z,8.10
2019-05-11T20:09:20.745Z,7.00
2019-05-11T20:11:20.715Z,8.20
2019-05-11T20:13:28.492Z,9.10
2019-05-11T20:15:20.679Z,5.60
2019-05-11T20:17:20.633Z,7.50
2019-05-11T20:19:20.619Z,6.20
2019-05-11T20:21:23.036Z,5.50
2019-05-11T20:23:20.581Z,6.10
2019-05-11T20:25:20.650Z,10.20
2019-05-11T20:27:20.537Z,5.30
2019-05-11T20:29:20.524Z,8.90
2019-05-11T20:31:20.492Z,7.10
2019-05-11T20:33:20.488Z,7.30
2019-05-11T20:35:20.470Z,6.30
2019-05-11T20:37:20.453Z,7.90
2019-05-11T20:39:20.399Z,4.40
2019-05-11T20:41:20.403Z,7.20
2019-05-11T20:43:20.351Z,7.70
2019-05-11T20:45:20.329Z,5.40
2019-05-11T20:47:20.336Z,6.60
2019-05-11T20:49:20.285Z,7.30
2019-05-11T20:51:33.217Z,4.80
2019-05-11T20:53:21.249Z,7.60
2019-05-11T20:55:20.232Z,7.70
2019-05-11T20:57:20.215Z,8.70
2019-05-11T20:59:20.204Z,6.80
2019-05-11T21:01:21.608Z,7.70
2019-05-11T21:03:20.132Z,5.00
2019-05-11T21:05:20.108Z,6.90
2019-05-11T21:07:20.116Z,7.30
2019-05-11T21:09:20.081Z,6.90
2019-05-11T21:11:20.040Z,4.50
2019-05-11T21:13:20.025Z,7.80
2019-05-11T21:15:20.023Z,6.90
2019-05-11T21:17:19.983Z,7.20
2019-05-11T21:19:20.747Z,5.00
2019-05-11T21:21:19.978Z,7.10
2019-05-11T21:23:19.912Z,7.20
2019-05-11T21:25:19.900Z,5.20
2019-05-11T21:27:20.311Z,6.90
2019-05-11T21:29:19.884Z,5.00
2019-05-11T21:31:19.815Z,7.10
2019-05-11T21:33:19.801Z,6.60
2019-05-11T21:35:19.780Z,6.10
2019-05-11T21:37:19.766Z,5.70
2019-05-11T21:39:19.729Z,6.00
2019-05-11T21:41:19.744Z,7.10
2019-05-11T21:43:19.721Z,5.10
2019-05-11T21:45:19.718Z,5.70
2019-05-11T21:47:19.649Z,7.00
2019-05-11T21:49:19.643Z,6.70
2019-05-11T21:51:19.600Z,6.00
2019-05-11T21:53:19.594Z,6.50
2019-05-11T21:55:19.573Z,6.30
2019-05-11T21:57:19.542Z,7.70
2019-05-11T21:59:19.566Z,4.50
2019-05-11T22:01:20.454Z,9.00
2019-05-11T22:03:19.489Z,8.10
2019-05-11T22:05:20.975Z,7.50
2019-05-11T22:07:22.762Z,8.10
2019-05-11T22:09:19.440Z,6.90
2019-05-11T22:11:19.417Z,9.10
2019-05-11T22:13:20.623Z,6.80
2019-05-11T22:15:19.347Z,10.40
2019-05-11T22:17:19.358Z,5.10
2019-05-11T22:19:19.312Z,5.90
2019-05-11T22:21:19.290Z,8.00
2019-05-11T22:23:19.288Z,7.00
2019-05-11T22:25:19.254Z,7.70
2019-05-11T22:27:19.233Z,6.90
2019-05-11T22:29:19.224Z,9.20
2019-05-11T22:31:28.082Z,6.90
2019-05-11T22:33:19.166Z,8.30
2019-05-11T22:35:19.152Z,7.50
2019-05-11T22:37:19.114Z,7.30
2019-05-11T22:39:20.903Z,8.80
2019-05-11T22:41:19.070Z,11.50
2019-05-11T22:43:19.090Z,7.30
2019-05-11T22:45:19.067Z,7.40
2019-05-11T22:47:19.019Z,7.10
2019-05-11T22:49:19.018Z,8.10
2019-05-11T22:51:19.008Z,6.60
2019-05-11T22:53:19.044Z,8.90
2019-05-11T22:55:19.170Z,6.00
2019-05-11T22:57:18.958Z,7.90
2019-05-11T22:59:18.877Z,7.70
2019-05-11T23:01:19.541Z,7.20
2019-05-11T23:03:22.262Z,5.40
2019-05-11T23:05:18.938Z,8.20
2019-05-11T23:07:19.054Z,8.90
2019-05-11T23:09:19.718Z,7.80
2019-05-11T23:11:19.897Z,7.00
2019-05-11T23:13:18.830Z,6.60
2019-05-11T23:15:18.762Z,9.30
2019-05-11T23:17:18.684Z,6.70
2019-05-11T23:19:18.762Z,7.60
2019-05-11T23:21:18.935Z,7.10
2019-05-11T23:23:18.649Z,5.60
2019-05-11T23:25:18.851Z,6.30
2019-05-11T23:27:18.609Z,6.90
2019-05-11T23:29:18.597Z,6.80
